createdAt,value
2022-10-01T00:01:34.407Z,22.79
2022-10-01T00:06:34.917Z,22.75
2022-10-01T00:11:34.536Z,22.67
2022-10-01T00:16:33.702Z,22.62
2022-10-01T00:21:35.125Z,22.61
2022-10-01T00:26:36.063Z,22.57
2022-10-01T00:31:35.572Z,22.55
2022-10-01T00:36:36.436Z,22.56
2022-10-01T00:41:36.056Z,22.52
2022-10-01T00:46:42.832Z,22.47
2022-10-01T00:51:46.817Z,22.42
2022-10-01T00:56:46.655Z,22.23
2022-10-01T01:01:45.659Z,22.16
2022-10-01T01:06:51.610Z,22.16
2022-10-01T01:12:01.354Z,22.09
2022-10-01T01:17:08.637Z,22.09
2022-10-01T01:22:11.813Z,22.06
2022-10-01T01:27:23.975Z,22.06
2022-10-01T01:32:30.702Z,22.02
2022-10-01T01:37:34.774Z,21.99
2022-10-01T01:42:37.342Z,21.99
2022-10-01T01:47:39.991Z,21.98
2022-10-01T01:52:39.252Z,21.97
2022-10-01T01:57:40.617Z,21.98
2022-10-01T02:02:45.331Z,21.97
2022-10-01T02:08:17.558Z,21.96
2022-10-01T02:13:25.880Z,21.92
2022-10-01T02:18:32.939Z,21.91
2022-10-01T02:23:37.984Z,21.92
2022-10-01T02:28:40.989Z,21.94
2022-10-01T02:33:43.219Z,21.95
2022-10-01T02:38:45.883Z,21.95
2022-10-01T02:43:51.588Z,21.95
2022-10-01T02:48:53.549Z,21.88
2022-10-01T02:53:58.477Z,21.84
2022-10-01T02:58:57.354Z,21.82
2022-10-01T03:03:57.525Z,21.68
2022-10-01T03:08:57.611Z,21.54
2022-10-01T03:13:56.359Z,21.49
2022-10-01T03:18:55.145Z,21.43
2022-10-01T03:23:55.367Z,21.46
2022-10-01T03:28:54.303Z,21.41
2022-10-01T03:33:53.000Z,21.27
2022-10-01T03:38:51.803Z,21.16
2022-10-01T03:43:52.053Z,21.14
2022-10-01T03:48:50.768Z,21.10
2022-10-01T03:53:49.635Z,21.08
2022-10-01T03:58:48.516Z,20.90
2022-10-01T04:03:49.351Z,20.87
2022-10-01T04:08:48.251Z,20.79
2022-10-01T04:13:47.101Z,20.77
2022-10-01T04:18:45.924Z,20.72
2022-10-01T04:23:46.097Z,20.71
2022-10-01T04:28:46.973Z,20.63
2022-10-01T04:33:46.220Z,20.54
2022-10-01T04:38:46.322Z,20.47
2022-10-01T04:43:45.043Z,20.47
2022-10-01T04:48:45.746Z,20.47
2022-10-01T04:53:48.020Z,20.48
2022-10-01T04:58:46.799Z,20.50
2022-10-01T05:03:46.784Z,20.50
2022-10-01T05:08:50.708Z,20.55
2022-10-01T05:13:51.761Z,20.46
2022-10-01T05:18:52.456Z,20.41
2022-10-01T05:23:54.409Z,20.31
2022-10-01T05:28:54.160Z,20.35
2022-10-01T05:33:52.907Z,20.46
2022-10-01T05:38:53.004Z,20.37
2022-10-01T05:43:53.202Z,20.40
2022-10-01T05:48:55.440Z,20.43
2022-10-01T05:53:59.114Z,20.52
2022-10-01T05:58:59.615Z,20.92
2022-10-01T06:03:58.414Z,21.42
2022-10-01T06:09:00.407Z,21.82
2022-10-01T06:13:59.289Z,21.78
2022-10-01T06:18:58.548Z,21.90
2022-10-01T06:23:59.171Z,22.08
2022-10-01T06:28:58.039Z,22.24
2022-10-01T06:33:56.833Z,22.39
2022-10-01T06:38:55.637Z,22.54
2022-10-01T06:43:55.878Z,22.76
2022-10-01T06:48:54.725Z,22.79
2022-10-01T06:53:53.543Z,22.97
2022-10-01T06:58:52.495Z,23.14
2022-10-01T07:03:52.892Z,23.25
2022-10-01T07:08:51.657Z,23.43
2022-10-01T07:13:54.547Z,23.67
2022-10-01T07:18:54.896Z,23.76
2022-10-01T07:23:54.570Z,23.87
2022-10-01T07:28:53.425Z,24.00
2022-10-01T07:33:59.259Z,24.19
2022-10-01T07:38:59.328Z,24.40
2022-10-01T07:43:58.137Z,24.62
2022-10-01T07:48:56.934Z,24.88
2022-10-01T07:53:58.167Z,25.17
2022-10-01T07:58:57.317Z,25.50
2022-10-01T08:03:56.126Z,25.86
2022-10-01T08:08:56.264Z,26.21
2022-10-01T08:13:57.321Z,26.50
2022-10-01T08:18:56.028Z,26.81
2022-10-01T08:23:56.737Z,26.97
2022-10-01T08:28:55.654Z,27.28
2022-10-01T08:33:54.453Z,27.68
2022-10-01T08:38:53.248Z,28.10
2022-10-01T08:43:54.257Z,28.58
2022-10-01T08:49:00.015Z,29.16
2022-10-01T08:54:04.931Z,29.97
2022-10-01T08:59:14.262Z,31.16
2022-10-01T09:04:14.324Z,32.42
2022-10-01T09:09:32.459Z,33.18
2022-10-01T09:14:45.556Z,34.06
2022-10-01T09:20:00.276Z,34.24
2022-10-01T09:25:04.932Z,34.66
2022-10-01T09:30:08.912Z,35.06
2022-10-01T09:35:21.296Z,35.41
2022-10-01T09:40:28.218Z,35.63
2022-10-01T09:45:28.830Z,35.44
2022-10-01T09:50:35.358Z,35.36
2022-10-01T09:55:40.414Z,35.31
2022-10-01T10:00:41.421Z,35.40
2022-10-01T10:05:49.569Z,34.62
2022-10-01T10:10:52.962Z,34.66
2022-10-01T10:15:56.628Z,34.88
2022-10-01T10:20:56.097Z,34.89
2022-10-01T10:26:01.061Z,34.60
2022-10-01T10:31:02.076Z,34.07
2022-10-01T10:36:03.467Z,34.04
2022-10-01T10:41:03.963Z,34.02
2022-10-01T10:46:04.616Z,33.79
2022-10-01T10:51:06.075Z,33.37
2022-10-01T10:56:07.494Z,33.55
2022-10-01T11:01:11.427Z,33.30
2022-10-01T11:06:13.442Z,33.13
2022-10-01T11:11:32.406Z,33.24
2022-10-01T11:17:05.081Z,33.25
2022-10-01T11:22:22.466Z,33.20
2022-10-01T11:27:28.564Z,33.10
2022-10-01T11:32:38.742Z,33.08
2022-10-01T11:37:57.465Z,33.01
2022-10-01T11:43:03.014Z,32.90
2022-10-01T11:48:09.224Z,32.78
2022-10-01T11:53:14.031Z,32.67
2022-10-01T11:58:37.831Z,32.56
2022-10-01T12:03:46.975Z,32.41
2022-10-01T12:08:53.421Z,31.87
2022-10-01T12:14:00.222Z,32.00
2022-10-01T12:19:04.578Z,32.13
2022-10-01T12:24:06.378Z,32.52
2022-10-01T12:29:14.336Z,32.79
2022-10-01T12:34:23.638Z,33.14
2022-10-01T12:39:34.388Z,33.26
2022-10-01T12:44:49.228Z,33.30
2022-10-01T12:49:56.422Z,33.61
2022-10-01T12:55:17.990Z,34.18
2022-10-01T13:00:20.724Z,34.58
2022-10-01T13:05:29.377Z,35.24
2022-10-01T13:10:40.736Z,36.08
2022-10-01T13:15:42.309Z,37.29
2022-10-01T13:20:54.185Z,38.26
2022-10-01T13:26:02.908Z,38.98
2022-10-01T13:31:11.307Z,39.19
2022-10-01T13:36:13.422Z,39.07
2022-10-01T13:41:21.643Z,38.42
2022-10-01T13:46:20.663Z,37.78
2022-10-01T13:51:21.544Z,37.02
2022-10-01T13:56:32.253Z,36.08
2022-10-01T14:01:40.363Z,35.45
2022-10-01T14:06:47.046Z,35.01
2022-10-01T14:12:06.794Z,34.53
2022-10-01T14:17:07.813Z,34.10
2022-10-01T14:22:23.663Z,33.81
2022-10-01T14:27:29.607Z,33.30
2022-10-01T14:32:39.925Z,32.80
2022-10-01T14:37:41.668Z,32.44
2022-10-01T14:42:40.979Z,31.94
2022-10-01T14:47:39.746Z,31.65
2022-10-01T14:52:46.843Z,31.38
2022-10-01T14:57:49.539Z,31.28
2022-10-01T15:02:50.407Z,31.16
2022-10-01T15:07:50.619Z,31.01
2022-10-01T15:12:52.665Z,30.80
2022-10-01T15:17:56.799Z,30.64
2022-10-01T15:23:01.411Z,30.46
2022-10-01T15:28:00.855Z,29.97
2022-10-01T15:32:59.924Z,29.60
2022-10-01T15:38:00.857Z,29.27
2022-10-01T15:43:26.383Z,28.85
2022-10-01T15:48:30.659Z,28.79
2022-10-01T15:53:31.834Z,28.72
2022-10-01T15:58:31.955Z,28.43
2022-10-01T16:03:34.129Z,28.18
2022-10-01T16:08:40.691Z,27.93
2022-10-01T16:13:41.231Z,28.02
2022-10-01T16:18:40.447Z,27.92
2022-10-01T16:23:48.170Z,27.80
2022-10-01T16:28:46.914Z,27.74
2022-10-01T16:33:46.855Z,27.60
2022-10-01T16:38:47.182Z,27.35
2022-10-01T16:43:45.945Z,27.36
2022-10-01T16:48:45.374Z,27.15
2022-10-01T16:53:44.183Z,27.04
2022-10-01T16:58:45.174Z,26.91
2022-10-01T17:03:44.033Z,26.63
2022-10-01T17:08:42.882Z,26.53
2022-10-01T17:13:42.352Z,26.48
2022-10-01T17:18:43.880Z,26.53
2022-10-01T17:23:42.567Z,26.38
2022-10-01T17:28:41.224Z,26.48
2022-10-01T17:33:40.207Z,26.44
2022-10-01T17:38:44.084Z,26.50
2022-10-01T17:43:44.785Z,26.48
2022-10-01T17:48:43.539Z,26.41
2022-10-01T17:53:44.042Z,26.35
2022-10-01T17:58:45.205Z,26.15
2022-10-01T18:03:44.909Z,26.05
2022-10-01T18:08:55.027Z,26.03
2022-10-01T18:13:54.613Z,25.99
2022-10-01T18:24:17.509Z,26.12
2022-10-01T18:29:19.747Z,26.15
2022-10-01T18:34:26.340Z,26.19
2022-10-01T18:39:32.942Z,26.21
2022-10-01T18:44:31.777Z,26.20
2022-10-01T18:49:55.322Z,26.20
2022-10-01T18:55:21.391Z,26.18
2022-10-01T19:00:23.508Z,26.15
2022-10-01T19:05:47.792Z,26.08
2022-10-01T19:10:57.426Z,26.02
2022-10-01T19:16:07.175Z,25.96
2022-10-01T19:21:21.892Z,25.74
2022-10-01T19:26:28.857Z,25.57
2022-10-01T19:31:38.654Z,25.50
2022-10-01T19:36:42.215Z,25.45
2022-10-01T19:41:45.630Z,25.39
2022-10-01T19:46:47.501Z,25.32
2022-10-01T19:51:50.460Z,25.30
2022-10-01T19:56:57.658Z,25.15
2022-10-01T20:02:03.208Z,25.02
2022-10-01T20:07:11.052Z,25.02
2022-10-01T20:12:22.656Z,25.05
2022-10-01T20:17:27.485Z,25.04
2022-10-01T20:22:34.675Z,25.04
2022-10-01T20:27:48.481Z,24.96
2022-10-01T20:33:01.788Z,24.90
2022-10-01T20:38:07.374Z,24.75
2022-10-01T20:43:13.717Z,24.79
2022-10-01T20:48:17.890Z,24.84
2022-10-01T20:53:21.439Z,24.57
2022-10-01T20:58:25.308Z,24.54
2022-10-01T21:03:28.175Z,24.45
2022-10-01T21:08:38.582Z,24.45
2022-10-01T21:13:45.674Z,24.51
2022-10-01T21:18:57.484Z,24.54
2022-10-01T21:24:11.322Z,24.43
2022-10-01T21:29:26.959Z,24.24
2022-10-01T21:34:35.226Z,23.59
2022-10-01T21:39:42.282Z,23.02
2022-10-01T21:45:12.030Z,22.62
2022-10-01T21:50:23.642Z,22.53
2022-10-01T21:55:34.015Z,22.33
2022-10-01T22:00:34.534Z,22.12
2022-10-01T22:05:40.277Z,21.92
2022-10-01T22:10:43.211Z,21.99
2022-10-01T22:15:46.231Z,22.04
2022-10-01T22:20:56.346Z,22.15
2022-10-01T22:25:59.497Z,22.28
2022-10-01T22:31:03.626Z,22.37
2022-10-01T22:36:09.159Z,22.29
2022-10-01T22:41:13.732Z,22.43
2022-10-01T22:46:32.746Z,22.43
2022-10-01T22:51:46.637Z,22.32
2022-10-01T22:56:55.604Z,22.36
2022-10-01T23:02:08.816Z,22.47
2022-10-01T23:07:17.667Z,22.54
2022-10-01T23:12:23.792Z,22.57
2022-10-01T23:17:29.985Z,22.60
2022-10-01T23:22:41.169Z,22.59
2022-10-01T23:27:53.910Z,22.34
2022-10-01T23:33:09.146Z,22.22
2022-10-01T23:38:20.445Z,22.24
2022-10-01T23:43:27.127Z,22.21
2022-10-01T23:48:35.665Z,22.27
2022-10-01T23:53:41.875Z,22.32
2022-10-01T23:58:46.323Z,22.33
